Time;durP1;ratioP1;P1;durP2;ratioP2;P2;SDS_P1;SDS_P2;PMS_P1;PMS_P2;Temp;Humidity;BMP_temperature;BMP_pressure;BME280_temperature;BME280_humidity;BME280_pressure;Samples;Min_cycle;Max_cycle;Signal;HPM_P1;HPM_P2
2023/04/17 00:01:23;;;;;;;;;;;;;;;9.25;90.21;102553.81;5020523;28;19932;-60
2023/04/17 00:03:51;;;;;;;;;;;;;;;9.26;89.92;102552.00;5025283;28;19941;-60
2023/04/17 00:06:17;;;;;;;;;;;;;;;9.24;89.96;102543.31;5021427;28;20000;-60
2023/04/17 00:08:43;;;;;;;;;;;;;;;9.23;90.23;102546.91;5021267;28;20066;-61
2023/04/17 00:11:08;;;;;;;;;;;;;;;9.24;89.82;102551.25;5016993;28;20376;-60
2023/04/17 00:13:33;;;;;;;;;;;;;;;9.25;89.82;102550.28;5023585;28;19924;-60
2023/04/17 00:15:58;;;;;;;;;;;;;;;9.24;90.12;102543.31;5022968;28;19921;-60
2023/04/17 00:18:25;;;;;;;;;;;;;;;9.23;90.03;102544.25;5020678;28;21366;-60
2023/04/17 00:20:51;;;;;;;;;;;;;;;9.23;90.14;102545.09;5019580;28;19920;-60
2023/04/17 00:23:16;;;;;;;;;;;;;;;9.21;90.13;102541.75;5023040;28;19921;-60
2023/04/17 00:25:41;;;;;;;;;;;;;;;9.17;89.88;102536.81;5025979;28;20306;-60
2023/04/17 00:28:06;;;;;;;;;;;;;;;9.14;90.06;102539.69;5019061;28;19980;-60
2023/04/17 00:30:31;;;;;;;;;;;;;;;9.11;89.82;102534.63;5019260;28;20338;-60
2023/04/17 00:32:56;;;;;;;;;;;;;;;9.09;89.72;102536.56;5026816;28;19917;-60
2023/04/17 00:35:21;;;;;;;;;;;;;;;9.07;89.70;102539.34;5025861;28;20436;-60
2023/04/17 00:37:47;;;;;;;;;;;;;;;9.06;89.77;102527.03;5027233;28;19917;-61
2023/04/17 00:40:12;;;;;;;;;;;;;;;9.05;89.98;102535.13;5023084;28;19983;-60
2023/04/17 00:42:37;;;;;;;;;;;;;;;9.04;90.16;102533.44;5026413;28;19932;-60
2023/04/17 00:45:04;;;;;;;;;;;;;;;9.03;89.99;102532.59;5025354;28;19953;-60
2023/04/17 00:47:29;;;;;;;;;;;;;;;9.04;90.36;102525.47;5026831;28;20378;-60
2023/04/17 00:49:54;;;;;;;;;;;;;;;9.05;90.06;102527.16;5026220;28;19960;-61
2023/04/17 00:52:26;;;;;;;;;;;;;;;9.05;90.20;102527.16;5027863;28;20003;-60
2023/04/17 00:54:52;;;;;;;;;;;;;;;9.05;90.18;102524.50;5015160;28;19913;-60
2023/04/17 00:57:17;;;;;;;;;;;;;;;9.04;90.45;102528.97;5024410;28;19971;-60
2023/04/17 00:59:42;;;;;;;;;;;;;;;9.03;90.42;102526.44;5024514;28;20397;-60
2023/04/17 01:02:08;;;;;;;;;;;;;;;9.01;90.32;102521.25;5027384;28;20046;-60
2023/04/17 01:04:33;;;;;;;;;;;;;;;9.02;90.27;102519.47;5015504;28;19914;-60
2023/04/17 01:06:59;;;;;;;;;;;;;;;9.01;90.45;102523.91;5026475;28;19919;-60
2023/04/17 01:09:24;;;;;;;;;;;;;;;9.03;90.57;102523.78;5020570;28;19932;-60
2023/04/17 01:11:49;;;;;;;;;;;;;;;9.04;90.54;102523.69;5023895;28;20286;-62
2023/04/17 01:14:14;;;;;;;;;;;;;;;9.06;90.41;102524.41;5019754;28;20012;-60
2023/04/17 01:16:40;;;;;;;;;;;;;;;9.06;90.14;102527.03;5026148;28;20004;-61
2023/04/17 01:19:07;;;;;;;;;;;;;;;9.07;90.32;102522.59;5025509;28;19920;-60
2023/04/17 01:21:32;;;;;;;;;;;;;;;9.07;90.38;102525.25;5026106;28;19917;-60
2023/04/17 01:24:01;;;;;;;;;;;;;;;9.06;90.50;102526.22;5025905;28;20004;-61
2023/04/17 01:26:26;;;;;;;;;;;;;;;9.03;90.67;102524.63;5022167;28;20012;-60
2023/04/17 01:28:56;;;;;;;;;;;;;;;9.03;90.50;102529.09;5018675;28;20008;-60
2023/04/17 01:31:21;;;;;;;;;;;;;;;9.03;90.45;102531.75;5016888;28;20440;-60
2023/04/17 01:33:47;;;;;;;;;;;;;;;9.00;90.29;102533.66;5027738;28;19918;-60
2023/04/17 01:36:12;;;;;;;;;;;;;;;9.00;90.21;102530.19;5029350;28;19932;-60
2023/04/17 01:38:38;;;;;;;;;;;;;;;8.99;90.54;102537.28;5023637;28;20363;-60
2023/04/17 01:41:08;;;;;;;;;;;;;;;8.95;90.39;102529.66;5030143;28;19921;-60
2023/04/17 01:43:35;;;;;;;;;;;;;;;8.92;90.01;102538.69;5023623;28;19917;-60
2023/04/17 01:46:00;;;;;;;;;;;;;;;8.89;90.04;102536.28;5030232;28;19917;-60
2023/04/17 01:48:25;;;;;;;;;;;;;;;8.89;89.84;102540.75;5027765;28;20375;-60
2023/04/17 01:50:50;;;;;;;;;;;;;;;8.87;90.00;102532.06;5028269;28;19949;-60
2023/04/17 01:53:15;;;;;;;;;;;;;;;8.86;89.75;102535.69;5024516;28;19917;-60
2023/04/17 01:55:40;;;;;;;;;;;;;;;8.86;90.02;102539.19;5026131;28;19959;-60
2023/04/17 01:58:05;;;;;;;;;;;;;;;8.86;90.00;102535.69;5020769;28;19917;-60
2023/04/17 02:00:31;;;;;;;;;;;;;;;8.84;89.98;102532.31;5026006;28;19955;-60
2023/04/17 02:02:56;;;;;;;;;;;;;;;8.84;89.69;102534.97;5024454;28;19921;-60
2023/04/17 02:05:21;;;;;;;;;;;;;;;8.82;90.01;102535.06;5030486;28;20148;-60
2023/04/17 02:07:48;;;;;;;;;;;;;;;8.82;89.75;102534.22;5023767;28;19964;-60
2023/04/17 02:10:13;;;;;;;;;;;;;;;8.81;90.16;102538.69;5021842;28;19928;-60
2023/04/17 02:12:38;;;;;;;;;;;;;;;8.82;89.70;102536.88;5025199;28;19917;-60
2023/04/17 02:15:04;;;;;;;;;;;;;;;8.81;90.15;102540.50;5025026;28;20333;-60
2023/04/17 02:17:29;;;;;;;;;;;;;;;8.79;90.04;102537.97;5028646;28;19930;-60
2023/04/17 02:19:54;;;;;;;;;;;;;;;8.79;89.87;102537.97;5025452;28;19917;-60
2023/04/17 02:22:19;;;;;;;;;;;;;;;8.76;90.09;102535.56;5028445;28;19923;-60
2023/04/17 02:24:44;;;;;;;;;;;;;;;8.76;90.00;102529.41;5038128;28;19982;-60
2023/04/17 02:27:10;;;;;;;;;;;;;;;8.76;90.13;102542.66;5031576;28;19917;-60
2023/04/17 02:29:35;;;;;;;;;;;;;;;8.73;90.17;102530.50;5028667;28;19921;-60
2023/04/17 02:32:00;;;;;;;;;;;;;;;8.72;89.97;102535.91;5027484;28;19917;-60
2023/04/17 02:34:26;;;;;;;;;;;;;;;8.72;90.48;102543.84;5020355;28;20279;-60
2023/04/17 02:36:51;;;;;;;;;;;;;;;8.71;90.37;102540.38;5024953;28;20051;-60
2023/04/17 02:39:16;;;;;;;;;;;;;;;8.70;90.33;102538.69;5029950;28;19921;-60
2023/04/17 02:41:41;;;;;;;;;;;;;;;8.69;90.30;102537.84;5022571;28;19928;-60
2023/04/17 02:44:06;;;;;;;;;;;;;;;8.70;90.24;102533.38;5026764;28;20405;-61
2023/04/17 02:46:32;;;;;;;;;;;;;;;8.71;90.79;102535.06;5025165;28;19927;-60
2023/04/17 02:48:57;;;;;;;;;;;;;;;8.69;90.56;102535.19;5023542;28;20497;-60
2023/04/17 02:51:22;;;;;;;;;;;;;;;8.69;90.73;102529.88;5019997;28;19957;-60
2023/04/17 02:53:48;;;;;;;;;;;;;;;8.71;90.70;102532.41;5019454;28;20355;-60
2023/04/17 02:56:13;;;;;;;;;;;;;;;8.70;90.67;102538.69;5026624;28;19925;-60
2023/04/17 02:58:38;;;;;;;;;;;;;;;8.69;90.72;102529.88;5020482;28;19917;-60
2023/04/17 03:01:03;;;;;;;;;;;;;;;8.69;90.69;102532.53;5019830;28;19924;-60
2023/04/17 03:03:33;;;;;;;;;;;;;;;8.70;91.00;102538.69;5027571;28;20349;-60
2023/04/17 03:05:59;;;;;;;;;;;;;;;8.68;90.90;102543.25;5016624;28;19913;-60
2023/04/17 03:08:24;;;;;;;;;;;;;;;8.66;90.71;102545.13;5026410;28;19917;-60
2023/04/17 03:10:49;;;;;;;;;;;;;;;8.65;90.95;102546.94;5025888;28;20008;-61
2023/04/17 03:13:14;;;;;;;;;;;;;;;8.65;90.59;102551.41;5022068;28;19974;-60
2023/04/17 03:15:40;;;;;;;;;;;;;;;8.65;90.84;102554.03;5028384;28;19921;-61
2023/04/17 03:18:05;;;;;;;;;;;;;;;8.62;90.76;102541.88;5026360;28;19995;-61
2023/04/17 03:20:30;;;;;;;;;;;;;;;8.63;90.93;102548.03;5022882;28;19941;-61
2023/04/17 03:22:55;;;;;;;;;;;;;;;8.61;90.82;102553.44;5023251;28;19952;-60
2023/04/17 03:25:20;;;;;;;;;;;;;;;8.61;90.51;102549.94;5024953;28;19917;-61
2023/04/17 03:27:45;;;;;;;;;;;;;;;8.62;90.68;102548.97;5025353;28;19932;-61
2023/04/17 03:30:11;;;;;;;;;;;;;;;8.62;90.87;102557.78;5026416;28;19971;-60
2023/04/17 03:32:36;;;;;;;;;;;;;;;8.62;90.84;102552.47;5027892;28;20498;-61
2023/04/17 03:35:02;;;;;;;;;;;;;;;8.61;91.10;102544.66;5021943;28;19928;-60
2023/04/17 03:37:27;;;;;;;;;;;;;;;8.60;90.87;102543.81;5027796;28;20403;-60
2023/04/17 03:39:54;;;;;;;;;;;;;;;8.59;90.85;102546.56;5027950;28;20346;-60
2023/04/17 03:42:19;;;;;;;;;;;;;;;8.57;91.13;102553.78;5021048;28;19925;-60
2023/04/17 03:44:45;;;;;;;;;;;;;;;8.55;91.14;102545.13;5024383;28;19921;-60
2023/04/17 03:47:10;;;;;;;;;;;;;;;8.55;91.06;102547.75;5026045;28;20338;-60
2023/04/17 03:49:35;;;;;;;;;;;;;;;8.52;91.32;102542.69;5026930;28;20313;-60
2023/04/17 03:52:02;;;;;;;;;;;;;;;8.50;91.45;102544.63;5028493;28;19948;-60
2023/04/17 03:54:28;;;;;;;;;;;;;;;8.49;91.43;102545.59;5017893;28;19980;-60
2023/04/17 03:56:53;;;;;;;;;;;;;;;8.48;91.48;102542.09;5029672;28;19944;-61
2023/04/17 03:59:19;;;;;;;;;;;;;;;8.48;91.11;102547.38;5021856;28;20280;-60
2023/04/17 04:01:45;;;;;;;;;;;;;;;8.47;91.13;102543.06;5021358;28;19924;-61
2023/04/17 04:04:10;;;;;;;;;;;;;;;8.48;91.48;102542.09;5025845;28;19971;-60
2023/04/17 04:06:36;;;;;;;;;;;;;;;8.48;91.25;102543.91;5020801;28;19921;-60
2023/04/17 04:09:01;;;;;;;;;;;;;;;8.47;91.54;102545.69;5021509;28;20379;-61
2023/04/17 04:11:26;;;;;;;;;;;;;;;8.47;91.29;102540.41;5017151;28;20437;-60
2023/04/17 04:13:52;;;;;;;;;;;;;;;8.47;91.72;102542.22;5025430;28;19936;-60
2023/04/17 04:16:17;;;;;;;;;;;;;;;8.47;91.39;102548.34;5027559;28;19924;-60
2023/04/17 04:18:42;;;;;;;;;;;;;;;8.46;91.55;102544.00;5025716;28;19921;-60
2023/04/17 04:21:08;;;;;;;;;;;;;;;8.46;91.63;102545.81;5025042;28;19924;-61
2023/04/17 04:23:36;;;;;;;;;;;;;;;8.44;91.41;102555.69;5024406;28;19917;-60
2023/04/17 04:26:01;;;;;;;;;;;;;;;8.44;91.77;102551.22;5028132;28;20294;-61
2023/04/17 04:28:26;;;;;;;;;;;;;;;8.42;91.55;102552.31;5028804;28;20374;-60
2023/04/17 04:30:52;;;;;;;;;;;;;;;8.40;91.83;102557.72;5024409;28;19921;-60
2023/04/17 04:33:19;;;;;;;;;;;;;;;8.41;91.87;102561.22;5022191;28;20012;-60
2023/04/17 04:35:46;;;;;;;;;;;;;;;8.39;91.72;102553.38;5020696;28;19925;-61
2023/04/17 04:38:12;;;;;;;;;;;;;;;8.39;91.84;102558.69;5025797;28;19917;-60
2023/04/17 04:40:38;;;;;;;;;;;;;;;8.40;92.00;102559.53;5024661;28;19928;-60
2023/04/17 04:43:05;;;;;;;;;;;;;;;8.40;91.98;102564.81;5027874;28;19917;-60
2023/04/17 04:45:30;;;;;;;;;;;;;;;8.40;nan;102555.06;5026929;28;20382;-60
2023/04/17 04:47:55;;;;;;;;;;;;;;;8.42;91.82;102565.53;5025527;28;19964;-60
2023/04/17 04:50:20;;;;;;;;;;;;;;;8.40;91.98;102573.59;5026681;28;19917;-60
2023/04/17 04:52:46;;;;;;;;;;;;;;;8.40;92.17;102573.59;5019864;28;19964;-61
2023/04/17 04:55:11;;;;;;;;;;;;;;;8.40;91.86;102575.41;5021182;28;19917;-60
2023/04/17 04:57:36;;;;;;;;;;;;;;;8.38;92.20;102563.13;5025038;28;19930;-60
2023/04/17 05:00:05;;;;;;;;;;;;;;;8.23;92.03;102548.34;5024512;28;19932;-60
2023/04/17 05:02:30;;;;;;;;;;;;;;;8.36;92.29;102570.31;5021999;28;19928;-60
2023/04/17 05:04:56;;;;;;;;;;;;;;;8.35;92.20;102562.47;5023544;28;19917;-60
2023/04/17 05:07:21;;;;;;;;;;;;;;;8.34;92.24;102566.09;5017735;28;19948;-60
2023/04/17 05:09:46;;;;;;;;;;;;;;;8.35;92.47;102575.72;5025404;28;19956;-60
2023/04/17 05:12:11;;;;;;;;;;;;;;;8.35;92.34;102579.22;5021820;28;19940;-60
2023/04/17 05:14:38;;;;;;;;;;;;;;;8.36;92.45;102574.75;5024973;28;19964;-60
2023/04/17 05:17:03;;;;;;;;;;;;;;;8.35;92.58;102579.22;5025870;28;19925;-60
2023/04/17 05:19:29;;;;;;;;;;;;;;;8.34;92.83;102582.81;5025579;28;20283;-60
2023/04/17 05:21:54;;;;;;;;;;;;;;;8.32;92.54;102591.78;5025330;28;19913;-60
2023/04/17 05:24:19;;;;;;;;;;;;;;;8.31;92.96;102587.47;5018609;28;19929;-60
2023/04/17 05:26:44;;;;;;;;;;;;;;;8.30;93.03;102591.91;5024089;28;20393;-60
2023/04/17 05:29:10;;;;;;;;;;;;;;;8.31;93.14;102593.59;5027657;28;19939;-60
2023/04/17 05:31:35;;;;;;;;;;;;;;;8.31;93.00;102593.59;5028479;28;19964;-60
2023/04/17 05:34:00;;;;;;;;;;;;;;;8.33;92.80;102594.38;5023086;28;19978;-60
2023/04/17 05:36:25;;;;;;;;;;;;;;;8.33;92.68;102591.72;5025608;28;19921;-60
2023/04/17 05:38:51;;;;;;;;;;;;;;;8.35;93.06;102587.16;5023317;28;20430;-60
2023/04/17 05:41:16;;;;;;;;;;;;;;;8.36;93.11;102593.28;5025755;28;19917;-60
2023/04/17 05:43:41;;;;;;;;;;;;;;;8.37;93.14;102592.31;5017859;28;20338;-60
2023/04/17 05:46:07;;;;;;;;;;;;;;;8.39;93.01;102598.38;5022816;28;19923;-60
2023/04/17 05:48:32;;;;;;;;;;;;;;;8.40;93.18;102593.94;5023007;28;19927;-60
2023/04/17 05:50:57;;;;;;;;;;;;;;;8.38;92.99;102592.25;5024075;28;19917;-60
2023/04/17 05:53:22;;;;;;;;;;;;;;;8.37;93.26;102598.47;5016868;28;20319;-60
2023/04/17 05:55:47;;;;;;;;;;;;;;;8.37;93.46;102602.91;5023305;28;20402;-60
2023/04/17 05:58:13;;;;;;;;;;;;;;;8.36;93.50;102599.44;5026885;28;20378;-60
2023/04/17 06:00:39;;;;;;;;;;;;;;;8.37;93.24;102606.41;5021309;28;20024;-60
2023/04/17 06:03:05;;;;;;;;;;;;;;;8.37;93.52;102606.41;5023615;28;19944;-60
2023/04/17 06:05:30;;;;;;;;;;;;;;;8.36;93.47;102612.66;5017979;28;19921;-60
2023/04/17 06:07:55;;;;;;;;;;;;;;;8.36;93.53;102604.72;5024800;28;20346;-60
2023/04/17 06:10:21;;;;;;;;;;;;;;;8.37;93.72;102608.22;5019380;28;19924;-60
2023/04/17 06:12:46;;;;;;;;;;;;;;;8.40;93.47;102604.53;5023552;28;19925;-60
2023/04/17 06:15:11;;;;;;;;;;;;;;;8.41;93.50;102609.69;5022098;28;19919;-60
2023/04/17 06:17:37;;;;;;;;;;;;;;;8.44;93.74;102609.47;5019245;28;19922;-60
2023/04/17 06:20:09;;;;;;;;;;;;;;;8.46;93.63;102614.66;5023331;28;19982;-60
2023/04/17 06:22:34;;;;;;;;;;;;;;;8.48;93.55;102615.38;5029588;28;19913;-60
2023/04/17 06:24:59;;;;;;;;;;;;;;;8.48;93.83;102620.69;5021742;28;19917;-60
2023/04/17 06:27:24;;;;;;;;;;;;;;;8.48;93.61;102624.16;5011185;28;19948;-60
2023/04/17 06:29:49;;;;;;;;;;;;;;;8.48;93.81;102625.97;5025252;28;20417;-60
2023/04/17 06:32:15;;;;;;;;;;;;;;;8.48;93.87;102629.47;5025796;28;19968;-60
2023/04/17 06:34:40;;;;;;;;;;;;;;;8.50;93.42;102619.59;5025624;28;19917;-60
2023/04/17 06:37:05;;;;;;;;;;;;;;;8.53;93.81;102623.81;5021376;28;19924;-60
2023/04/17 06:39:31;;;;;;;;;;;;;;;8.55;93.87;102629.84;5020915;28;19921;-60
2023/04/17 06:41:57;;;;;;;;;;;;;;;8.56;93.65;102624.44;5023781;28;19918;-60
2023/04/17 06:44:22;;;;;;;;;;;;;;;8.57;93.48;102634.06;5026059;28;20004;-60
2023/04/17 06:46:49;;;;;;;;;;;;;;;8.58;93.44;102629.63;5022110;28;19914;-60
2023/04/17 06:49:15;;;;;;;;;;;;;;;8.59;93.42;102633.97;5026696;28;19917;-60
2023/04/17 06:51:40;;;;;;;;;;;;;;;8.59;93.42;102633.97;5026590;28;19955;-60
2023/04/17 06:54:05;;;;;;;;;;;;;;;8.59;93.41;102629.50;5026081;28;20431;-60
2023/04/17 06:56:30;;;;;;;;;;;;;;;8.61;93.51;102639.97;5025784;28;19967;-60
2023/04/17 06:58:56;;;;;;;;;;;;;;;8.63;93.51;102636.25;5023581;28;19916;-60
2023/04/17 07:01:21;;;;;;;;;;;;;;;8.66;93.50;102645.78;5028123;28;19913;-60
2023/04/17 07:03:47;;;;;;;;;;;;;;;8.68;93.60;102638.59;5027690;28;19913;-60
2023/04/17 07:06:12;;;;;;;;;;;;;;;8.69;93.53;102650.88;5021635;28;20014;-60
2023/04/17 07:08:37;;;;;;;;;;;;;;;8.69;93.50;102645.59;5024190;28;19921;-60
2023/04/17 07:11:02;;;;;;;;;;;;;;;8.68;93.46;102655.31;5029313;28;20054;-60
2023/04/17 07:13:30;;;;;;;;;;;;;;;8.68;93.50;102657.13;5029086;28;19967;-60
2023/04/17 07:15:56;;;;;;;;;;;;;;;8.68;93.38;102665.94;5026323;28;20015;-60
2023/04/17 07:18:21;;;;;;;;;;;;;;;8.68;93.62;102665.94;5022719;28;20420;-60
2023/04/17 07:20:47;;;;;;;;;;;;;;;8.69;93.15;102667.63;5026915;28;20449;-60
2023/04/17 07:23:12;;;;;;;;;;;;;;;8.69;93.26;102669.41;5028570;28;19917;-60
2023/04/17 07:25:37;;;;;;;;;;;;;;;8.69;92.99;102662.31;5027281;28;19956;-60
2023/04/17 07:28:02;;;;;;;;;;;;;;;8.74;93.11;102664.63;5032538;28;19917;-60
2023/04/17 07:30:28;;;;;;;;;;;;;;;8.78;93.11;102665.22;5016740;28;20302;-60
2023/04/17 07:32:53;;;;;;;;;;;;;;;8.81;93.36;102672.94;5028284;28;20063;-60
2023/04/17 07:35:18;;;;;;;;;;;;;;;8.85;93.53;102671.75;5023765;28;19968;-60
2023/04/17 07:37:43;;;;;;;;;;;;;;;8.88;93.56;102679.47;5019774;28;19917;-60
2023/04/17 07:40:09;;;;;;;;;;;;;;;8.89;93.23;102676.72;5022240;28;20055;-60
2023/04/17 07:42:34;;;;;;;;;;;;;;;8.90;93.14;102678.41;5022885;28;20247;-60
2023/04/17 07:45:00;;;;;;;;;;;;;;;8.92;93.10;102678.28;5023639;28;19913;-60
2023/04/17 07:47:25;;;;;;;;;;;;;;;8.92;93.14;102673.81;5022500;28;19957;-60
2023/04/17 07:49:50;;;;;;;;;;;;;;;8.94;93.05;102676.34;5023518;28;19913;-60
2023/04/17 07:52:16;;;;;;;;;;;;;;;8.96;93.13;102680.59;5027784;28;19975;-60
2023/04/17 07:54:42;;;;;;;;;;;;;;;8.99;92.65;102684.84;5027990;28;19921;-60
2023/04/17 07:57:07;;;;;;;;;;;;;;;9.02;92.83;102692.56;5023585;28;19928;-60
2023/04/17 07:59:32;;;;;;;;;;;;;;;9.03;92.85;102685.44;5027228;28;19913;-60
2023/04/17 08:01:57;;;;;;;;;;;;;;;9.03;92.35;102678.34;5025361;28;19956;-60
2023/04/17 08:04:23;;;;;;;;;;;;;;;9.05;92.52;102684.38;5024548;28;21947;-60
2023/04/17 08:06:49;;;;;;;;;;;;;;;9.08;92.58;102680.63;5020749;28;19909;-60
2023/04/17 08:09:14;;;;;;;;;;;;;;;9.13;92.74;102686.44;5022690;28;19924;-60
2023/04/17 08:11:39;;;;;;;;;;;;;;;9.16;92.50;102688.84;5021678;28;19917;-60
2023/04/17 08:14:05;;;;;;;;;;;;;;;9.19;92.44;102696.56;5027500;28;19931;-60
2023/04/17 08:16:30;;;;;;;;;;;;;;;9.22;92.42;102688.38;5027245;28;19956;-60
2023/04/17 08:18:55;;;;;;;;;;;;;;;9.24;92.15;102694.41;5029491;28;19920;-60
2023/04/17 08:21:21;;;;;;;;;;;;;;;9.24;92.21;102692.59;5019353;28;20276;-60
2023/04/17 08:23:46;;;;;;;;;;;;;;;9.26;92.18;102692.50;5027950;28;19917;-60
2023/04/17 08:26:11;;;;;;;;;;;;;;;9.27;92.15;102699.50;5028529;28;19913;-60
2023/04/17 08:28:37;;;;;;;;;;;;;;;9.27;91.57;102692.41;5026930;28;20003;-60
2023/04/17 08:31:02;;;;;;;;;;;;;;;9.26;91.51;102692.50;5020347;28;19917;-60
2023/04/17 08:33:27;;;;;;;;;;;;;;;9.27;91.68;102696.84;5018633;28;19917;-60
2023/04/17 08:35:52;;;;;;;;;;;;;;;9.31;91.80;102693.00;5020614;28;19925;-60
2023/04/17 08:38:17;;;;;;;;;;;;;;;9.37;91.94;102694.34;5015009;28;20334;-60
2023/04/17 08:40:45;;;;;;;;;;;;;;;9.40;91.65;102691.44;5026540;28;19917;-60
2023/04/17 08:43:13;;;;;;;;;;;;;;;9.41;91.55;102698.44;5021152;28;19992;-60
2023/04/17 08:45:39;;;;;;;;;;;;;;;9.44;91.56;102700.84;5022461;28;20318;-60
2023/04/17 08:48:05;;;;;;;;;;;;;;;9.47;91.44;102692.66;5027602;28;21061;-60
2023/04/17 08:50:30;;;;;;;;;;;;;;;9.57;91.70;102698.97;5027632;28;19917;-60
2023/04/17 08:52:55;;;;;;;;;;;;;;;9.66;91.60;102700.06;5026884;28;19917;-60
2023/04/17 08:55:24;;;;;;;;;;;;;;;9.68;91.73;102701.63;5022757;28;19913;-60
2023/04/17 08:57:53;;;;;;;;;;;;;;;9.72;91.25;102695.09;5027899;28;19917;-60
2023/04/17 09:00:28;;;;;;;;;;;;;;;9.79;91.23;102706.91;5027576;28;19932;-60
2023/04/17 09:02:54;;;;;;;;;;;;;;;9.85;91.09;102701.16;5020162;28;19928;-60
2023/04/17 09:05:22;;;;;;;;;;;;;;;9.92;91.06;102699.72;5028172;28;19913;-60
2023/04/17 09:07:48;;;;;;;;;;;;;;;10.00;91.29;102704.41;5022384;28;19935;-60
2023/04/17 09:10:14;;;;;;;;;;;;;;;10.07;91.20;102699.44;5023907;28;20596;-60
2023/04/17 09:12:40;;;;;;;;;;;;;;;10.12;90.72;102707.88;5018289;28;19972;-60
2023/04/17 09:15:15;;;;;;;;;;;;;;;10.22;90.41;102699.13;5025522;28;19960;-59
2023/04/17 09:17:40;;;;;;;;;;;;;;;10.31;90.57;102702.00;5022442;28;19929;-60
2023/04/17 09:20:07;;;;;;;;;;;;;;;10.40;89.67;102699.44;5023996;28;19922;-60
2023/04/17 09:22:33;;;;;;;;;;;;;;;10.55;89.96;102700.00;5025058;28;19948;-60
2023/04/17 09:24:59;;;;;;;;;;;;;;;10.71;89.11;102695.16;5020805;28;19921;-60
2023/04/17 09:27:25;;;;;;;;;;;;;;;10.91;89.35;102700.63;5029902;28;19917;-60
2023/04/17 09:29:57;;;;;;;;;;;;;;;11.06;89.14;102702.00;5026053;28;20007;-60
2023/04/17 09:32:24;;;;;;;;;;;;;;;11.18;88.26;102701.81;5025603;28;19919;-60
2023/04/17 09:34:50;;;;;;;;;;;;;;;11.27;88.18;102704.66;5022168;28;20552;-60
2023/04/17 09:37:15;;;;;;;;;;;;;;;11.31;87.20;102703.47;5019431;28;19925;-60
2023/04/17 09:39:53;;;;;;;;;;;;;;;11.39;86.70;102701.81;5025360;28;19952;-60
2023/04/17 09:42:18;;;;;;;;;;;;;;;11.54;86.19;102706.81;5015199;28;20646;-60
2023/04/17 09:44:43;;;;;;;;;;;;;;;11.70;86.45;102693.88;5025508;28;19917;-60
2023/04/17 09:47:11;;;;;;;;;;;;;;;11.87;85.45;102697.78;5025652;28;19913;-60
2023/04/17 09:49:44;;;;;;;;;;;;;;;12.04;85.33;102697.13;5024314;28;19927;-60
2023/04/17 09:52:09;;;;;;;;;;;;;;;12.18;84.75;102693.28;5017255;28;19913;-60
2023/04/17 09:54:37;;;;;;;;;;;;;;;12.27;84.04;102695.13;5029552;28;20349;-60
2023/04/17 09:57:07;;;;;;;;;;;;;;;12.33;83.87;102694.56;5018373;28;19978;-60
2023/04/17 09:59:32;;;;;;;;;;;;;;;12.40;83.22;102688.53;5022109;28;19917;-60
2023/04/17 10:01:59;;;;;;;;;;;;;;;12.53;83.06;102693.63;5027527;28;19917;-60
2023/04/17 10:04:25;;;;;;;;;;;;;;;12.69;82.20;102695.75;5029245;28;19913;-60
2023/04/17 10:06:50;;;;;;;;;;;;;;;12.80;81.42;102694.78;5026178;28;19921;-60
2023/04/17 10:09:15;;;;;;;;;;;;;;;12.93;81.23;102684.66;5024234;28;19917;-60
2023/04/17 10:11:42;;;;;;;;;;;;;;;13.07;80.95;102692.25;5025593;28;19917;-60
2023/04/17 10:14:16;;;;;;;;;;;;;;;13.13;80.65;102685.50;5029323;28;19924;-60
2023/04/17 10:16:42;;;;;;;;;;;;;;;13.17;79.56;102693.13;5028873;28;20016;-60
2023/04/17 10:19:24;;;;;;;;;;;;;;;13.18;79.39;102689.47;5031629;28;19995;-60
2023/04/17 10:22:08;;;;;;;;;;;;;;;13.23;78.90;102694.38;5024063;28;19929;-60
2023/04/17 10:24:34;;;;;;;;;;;;;;;13.29;78.19;102693.78;5028906;28;19921;-60
2023/04/17 10:27:00;;;;;;;;;;;;;;;13.37;77.93;102690.44;5026715;28;19913;-60
2023/04/17 10:29:43;;;;;;;;;;;;;;;13.41;76.89;102694.50;5025089;28;19913;-60
2023/04/17 10:32:09;;;;;;;;;;;;;;;13.44;77.12;102689.69;5025635;28;19913;-60
2023/04/17 10:34:35;;;;;;;;;;;;;;;13.45;76.11;102694.06;5020002;28;19924;-60
2023/04/17 10:37:01;;;;;;;;;;;;;;;13.42;76.41;102689.00;5026130;28;19929;-60
2023/04/17 10:39:26;;;;;;;;;;;;;;;13.43;76.08;102688.03;5025036;28;20445;-60
2023/04/17 10:42:01;;;;;;;;;;;;;;;13.47;76.03;102689.41;5024880;28;20814;-60
2023/04/17 10:44:26;;;;;;;;;;;;;;;13.56;75.74;102690.38;5025805;28;20378;-60
2023/04/17 10:46:52;;;;;;;;;;;;;;;13.72;75.55;102689.75;5024921;28;19925;-60
2023/04/17 10:49:19;;;;;;;;;;;;;;;13.89;75.29;102679.16;5024022;28;19921;-60
2023/04/17 10:51:45;;;;;;;;;;;;;;;14.03;74.67;102685.00;5027887;28;19917;-60
2023/04/17 10:54:12;;;;;;;;;;;;;;;14.14;73.79;102676.78;5028075;28;20556;-60
2023/04/17 10:56:37;;;;;;;;;;;;;;;14.15;72.36;102678.44;5028253;28;19917;-60
2023/04/17 10:59:04;;;;;;;;;;;;;;;14.15;72.20;102686.47;5026088;28;19921;-60
2023/04/17 11:01:41;;;;;;;;;;;;;;;14.16;72.11;102678.31;5018233;28;19971;-60
2023/04/17 11:04:07;;;;;;;;;;;;;;;14.17;71.08;102676.50;5019141;28;20387;-60
2023/04/17 11:06:43;;;;;;;;;;;;;;;14.16;70.81;102662.28;5024971;28;20394;-60
2023/04/17 11:09:09;;;;;;;;;;;;;;;14.17;70.54;102676.50;5022877;28;19913;-60
2023/04/17 11:11:38;;;;;;;;;;;;;;;14.15;68.94;102673.09;5028130;28;19917;-60
2023/04/17 11:14:04;;;;;;;;;;;;;;;14.08;67.80;102664.84;5027362;28;19928;-60
2023/04/17 11:16:29;;;;;;;;;;;;;;;14.05;68.28;102672.34;5027240;28;19947;-60
2023/04/17 11:18:55;;;;;;;;;;;;;;;14.10;68.86;102678.06;5030587;28;20674;-60
2023/04/17 11:21:20;;;;;;;;;;;;;;;14.21;69.45;102680.56;5022198;28;19921;-60
2023/04/17 11:23:48;;;;;;;;;;;;;;;14.32;69.45;102677.66;5029031;28;19924;-60
2023/04/17 11:26:14;;;;;;;;;;;;;;;14.45;69.62;102675.47;5025025;28;20024;-60
2023/04/17 11:28:39;;;;;;;;;;;;;;;14.61;69.27;102668.63;5025029;28;19983;-60
2023/04/17 11:31:04;;;;;;;;;;;;;;;14.70;68.04;102671.22;5029953;28;20302;-60
2023/04/17 11:33:35;;;;;;;;;;;;;;;14.79;67.74;102674.84;5024832;28;19944;-60
2023/04/17 11:36:01;;;;;;;;;;;;;;;14.86;67.13;102673.22;5022584;28;19921;-60
2023/04/17 11:38:26;;;;;;;;;;;;;;;14.93;66.80;102668.09;5028348;28;19913;-60
2023/04/17 11:40:52;;;;;;;;;;;;;;;14.99;66.33;102670.13;5029125;28;20007;-60
2023/04/17 11:43:18;;;;;;;;;;;;;;;15.03;66.62;102663.47;5021811;28;19913;-60
2023/04/17 11:45:45;;;;;;;;;;;;;;;15.06;65.76;102664.03;5024844;28;19952;-60
2023/04/17 11:48:12;;;;;;;;;;;;;;;15.07;65.41;102662.19;5027197;28;19917;-60
2023/04/17 11:50:38;;;;;;;;;;;;;;;15.08;65.33;102659.38;5029593;28;19917;-60
2023/04/17 11:53:03;;;;;;;;;;;;;;;15.12;65.30;102665.25;5026166;28;20276;-60
2023/04/17 11:55:30;;;;;;;;;;;;;;;15.18;65.14;102668.13;5026750;28;19920;-60
2023/04/17 11:58:04;;;;;;;;;;;;;;;15.26;64.85;102655.78;5029106;28;20011;-60
2023/04/17 12:00:30;;;;;;;;;;;;;;;15.39;63.37;102650.88;5029066;28;19913;-60
2023/04/17 12:02:56;;;;;;;;;;;;;;;15.57;61.83;102662.34;5023135;28;21780;-60
2023/04/17 12:05:21;;;;;;;;;;;;;;;15.77;60.67;102650.44;5028583;28;19920;-60
2023/04/17 12:07:57;;;;;;;;;;;;;;;15.94;60.06;102648.69;5028366;28;19913;-60
2023/04/17 12:10:22;;;;;;;;;;;;;;;16.18;59.16;102657.78;5029050;28;19917;-60
2023/04/17 12:12:47;;;;;;;;;;;;;;;16.33;58.89;102650.81;5019667;28;20374;-60
2023/04/17 12:15:13;;;;;;;;;;;;;;;16.45;57.02;102652.16;5023313;28;19943;-60
2023/04/17 12:17:38;;;;;;;;;;;;;;;16.48;56.71;102656.34;5029005;28;20398;-60
2023/04/17 12:20:03;;;;;;;;;;;;;;;16.46;57.04;102655.69;5024531;28;19959;-60
2023/04/17 12:22:29;;;;;;;;;;;;;;;16.40;55.52;102649.97;5025364;28;20347;-60
2023/04/17 12:24:54;;;;;;;;;;;;;;;16.21;54.76;102655.66;5022902;28;19917;-60
2023/04/17 12:27:20;;;;;;;;;;;;;;;16.04;54.99;102653.91;5031060;28;19968;-60
2023/04/17 12:29:45;;;;;;;;;;;;;;;15.95;55.57;102654.88;5022125;28;19920;-60
2023/04/17 12:32:10;;;;;;;;;;;;;;;15.89;55.62;102653.66;5022659;28;19918;-60
2023/04/17 12:34:36;;;;;;;;;;;;;;;15.83;55.24;102654.31;5016441;28;19960;-60
2023/04/17 12:37:01;;;;;;;;;;;;;;;15.76;55.19;102654.13;5019439;28;20426;-60